createdAt,value
2019-05-03T00:00:43.898Z,94.00
2019-05-03T00:02:37.720Z,94.20
2019-05-03T00:04:15.908Z,94.40
2019-05-03T00:05:54.137Z,94.30
2019-05-03T00:07:31.729Z,94.30
2019-05-03T00:09:14.200Z,94.60
2019-05-03T00:10:51.779Z,94.80
2019-05-03T00:12:28.235Z,95.30
2019-05-03T00:14:05.565Z,95.60
2019-05-03T00:15:44.629Z,96.10
2019-05-03T00:17:21.888Z,96.20
2019-05-03T00:19:00.946Z,95.90
2019-05-03T00:20:36.338Z,95.80
2019-05-03T00:22:12.837Z,95.90
2019-05-03T00:23:49.266Z,96.30
2019-05-03T00:25:26.006Z,96.10
2019-05-03T00:27:02.442Z,96.20
2019-05-03T00:28:38.703Z,96.10
2019-05-03T00:30:15.477Z,96.20
2019-05-03T00:31:51.762Z,96.20
2019-05-03T00:33:28.200Z,96.10
2019-05-03T00:35:05.472Z,96.20
2019-05-03T00:36:58.806Z,96.10
2019-05-03T00:38:36.365Z,96.10
2019-05-03T00:40:26.590Z,96.10
2019-05-03T00:42:03.035Z,96.00
2019-05-03T00:43:39.361Z,96.20
2019-05-03T00:45:16.057Z,96.20
2019-05-03T00:46:52.807Z,96.20
2019-05-03T00:48:29.339Z,96.20
2019-05-03T00:50:08.129Z,96.20
2019-05-03T00:51:44.487Z,96.30
2019-05-03T00:53:22.361Z,96.30
2019-05-03T00:54:59.014Z,96.70
2019-05-03T00:56:35.485Z,96.40
2019-05-03T00:58:11.926Z,96.50
2019-05-03T00:59:48.308Z,96.60
2019-05-03T01:01:24.812Z,96.60
2019-05-03T01:03:02.188Z,96.60
2019-05-03T01:04:38.742Z,96.70
2019-05-03T01:06:15.218Z,96.90
2019-05-03T01:07:52.558Z,97.00
2019-05-03T01:09:31.600Z,97.00
2019-05-03T01:11:07.292Z,97.00
2019-05-03T01:12:43.650Z,96.90
2019-05-03T01:14:20.158Z,96.90
2019-05-03T01:15:58.174Z,96.90
2019-05-03T01:17:36.182Z,96.90
2019-05-03T01:19:12.585Z,96.90
2019-05-03T01:20:48.850Z,96.90
2019-05-03T01:22:25.292Z,96.90
2019-05-03T01:24:01.709Z,96.90
2019-05-03T01:25:38.173Z,96.80
2019-05-03T01:27:14.577Z,96.90
2019-05-03T01:28:52.109Z,96.90
2019-05-03T01:30:28.885Z,96.90
2019-05-03T01:32:05.357Z,96.90
2019-05-03T01:33:42.612Z,96.90
2019-05-03T01:35:19.101Z,96.90
2019-05-03T01:36:56.532Z,96.80
2019-05-03T01:38:32.855Z,96.90
2019-05-03T01:40:09.555Z,96.80
2019-05-03T01:41:45.936Z,96.80
2019-05-03T01:43:22.345Z,96.80
2019-05-03T01:44:59.281Z,96.80
2019-05-03T01:46:35.916Z,96.80
2019-05-03T01:48:13.848Z,96.80
2019-05-03T01:49:52.569Z,96.80
2019-05-03T01:51:39.426Z,96.80
2019-05-03T01:53:17.433Z,96.80
2019-05-03T01:54:54.172Z,96.90
2019-05-03T01:56:31.661Z,96.80
2019-05-03T01:58:08.058Z,96.90
2019-05-03T01:59:44.425Z,96.90
2019-05-03T02:01:22.105Z,96.80
2019-05-03T02:03:03.586Z,96.80
2019-05-03T02:04:44.579Z,96.90
2019-05-03T02:06:22.369Z,96.90
2019-05-03T02:07:58.858Z,97.00
2019-05-03T02:09:35.175Z,97.00
2019-05-03T02:11:11.712Z,97.20
2019-05-03T02:12:48.231Z,97.20
2019-05-03T02:14:25.027Z,97.30
2019-05-03T02:16:02.292Z,97.40
2019-05-03T02:17:38.936Z,97.40
2019-05-03T02:19:15.776Z,97.50
2019-05-03T02:20:52.600Z,97.30
2019-05-03T02:22:29.013Z,97.00
2019-05-03T02:24:05.516Z,96.70
2019-05-03T02:25:42.066Z,96.70
2019-05-03T02:27:18.992Z,96.70
2019-05-03T02:28:55.546Z,96.90
2019-05-03T02:30:33.236Z,96.80
2019-05-03T02:32:09.811Z,96.60
2019-05-03T02:33:46.115Z,96.70
2019-05-03T02:35:22.778Z,96.70
2019-05-03T02:36:59.257Z,96.90
2019-05-03T02:38:35.614Z,97.00
2019-05-03T02:40:13.339Z,97.00
2019-05-03T02:41:57.612Z,97.10
2019-05-03T02:43:29.891Z,97.10
2019-05-03T02:45:10.602Z,97.20
2019-05-03T02:46:52.728Z,97.30
2019-05-03T02:48:36.229Z,97.10
2019-05-03T02:50:16.470Z,96.90
2019-05-03T02:51:51.865Z,96.80
2019-05-03T02:53:28.309Z,96.80
2019-05-03T02:55:09.481Z,96.60
2019-05-03T02:56:46.214Z,96.70
2019-05-03T02:58:25.156Z,96.80
2019-05-03T03:00:00.946Z,96.90
2019-05-03T03:01:37.897Z,96.80
2019-05-03T03:03:16.577Z,96.70
2019-05-03T03:04:56.313Z,96.60
2019-05-03T03:06:36.424Z,96.50
2019-05-03T03:08:12.400Z,96.60
2019-05-03T03:09:49.894Z,97.00
2019-05-03T03:11:30.439Z,97.20
2019-05-03T03:13:09.709Z,97.30
2019-05-03T03:14:48.311Z,97.30
2019-05-03T03:16:26.615Z,97.30
2019-05-03T03:18:06.330Z,97.30
2019-05-03T03:19:49.782Z,97.30
2019-05-03T03:21:32.389Z,97.20
2019-05-03T03:23:15.346Z,97.10
2019-05-03T03:24:55.891Z,97.40
2019-05-03T03:26:37.969Z,97.10
2019-05-03T03:28:15.872Z,97.20
2019-05-03T03:29:59.643Z,97.20
2019-05-03T03:32:08.923Z,97.30
2019-05-03T03:33:47.131Z,97.10
2019-05-03T03:35:29.637Z,97.10
2019-05-03T03:37:06.618Z,97.00
2019-05-03T03:38:42.017Z,96.90
2019-05-03T03:40:20.825Z,96.90
2019-05-03T03:41:57.722Z,96.80
2019-05-03T03:43:35.568Z,96.80
2019-05-03T03:45:12.413Z,96.60
2019-05-03T03:46:51.123Z,96.60
2019-05-03T03:48:31.162Z,96.50
2019-05-03T03:50:09.092Z,96.50
2019-05-03T03:51:49.217Z,96.20
2019-05-03T03:53:28.745Z,96.10
2019-05-03T03:55:07.111Z,96.00
2019-05-03T03:57:02.098Z,95.90
2019-05-03T03:58:27.107Z,95.60
2019-05-03T04:00:08.454Z,95.50
2019-05-03T04:01:45.689Z,95.20
2019-05-03T04:03:25.695Z,94.70
2019-05-03T04:05:01.344Z,94.40
2019-05-03T04:06:40.731Z,93.70
2019-05-03T04:08:17.696Z,93.30
2019-05-03T04:09:56.214Z,92.80
2019-05-03T04:11:32.512Z,92.40
2019-05-03T04:13:10.894Z,91.90
2019-05-03T04:15:05.650Z,91.50
2019-05-03T04:16:57.123Z,91.10
2019-05-03T04:18:45.567Z,90.60
2019-05-03T04:20:25.706Z,90.00
2019-05-03T04:22:05.651Z,88.50
2019-05-03T04:23:41.715Z,87.20
2019-05-03T04:25:18.215Z,85.80
2019-05-03T04:27:18.043Z,84.80
2019-05-03T04:28:45.491Z,83.70
2019-05-03T04:30:21.931Z,82.30
2019-05-03T04:31:58.229Z,81.50
2019-05-03T04:33:35.903Z,81.10
2019-05-03T04:35:16.106Z,80.70
2019-05-03T04:36:51.358Z,80.70
2019-05-03T04:38:27.797Z,80.10
2019-05-03T04:40:06.320Z,79.70
2019-05-03T04:41:45.198Z,79.30
2019-05-03T04:43:20.986Z,79.20
2019-05-03T04:44:57.663Z,78.90
2019-05-03T04:46:35.847Z,78.60
2019-05-03T04:48:11.951Z,78.10
2019-05-03T04:49:48.428Z,77.50
2019-05-03T04:51:25.835Z,76.70
2019-05-03T04:53:05.533Z,76.40
2019-05-03T04:54:51.475Z,75.70
2019-05-03T04:56:27.913Z,74.40
2019-05-03T04:58:04.861Z,73.30
2019-05-03T04:59:41.243Z,72.70
2019-05-03T05:01:17.761Z,71.60
2019-05-03T05:02:55.185Z,70.60
2019-05-03T05:04:32.025Z,69.80
2019-05-03T05:06:08.543Z,69.00
2019-05-03T05:07:45.971Z,68.20
2019-05-03T05:09:22.650Z,66.60
2019-05-03T05:10:59.137Z,66.00
2019-05-03T05:12:35.725Z,65.10
2019-05-03T05:14:12.162Z,64.20
2019-05-03T05:15:48.596Z,62.50
2019-05-03T05:17:32.193Z,61.10
2019-05-03T05:19:10.341Z,61.50
2019-05-03T05:20:48.821Z,61.60
2019-05-03T05:22:26.839Z,61.10
2019-05-03T05:24:05.501Z,61.00
2019-05-03T05:25:44.580Z,61.00
2019-05-03T05:27:31.657Z,61.30
2019-05-03T05:29:09.768Z,61.90
2019-05-03T05:30:46.475Z,63.10
2019-05-03T05:32:24.635Z,63.70
2019-05-03T05:34:01.416Z,64.50
2019-05-03T05:35:37.812Z,65.50
2019-05-03T05:37:14.558Z,66.20
2019-05-03T05:38:51.219Z,66.20
2019-05-03T05:40:27.836Z,66.20
2019-05-03T05:42:04.621Z,66.60
2019-05-03T05:43:41.230Z,67.40
2019-05-03T05:45:18.831Z,69.00
2019-05-03T05:46:56.487Z,69.70
2019-05-03T05:48:40.880Z,69.70
2019-05-03T05:50:36.948Z,70.20
2019-05-03T05:52:15.495Z,70.50
2019-05-03T05:53:52.259Z,71.60
2019-05-03T05:55:47.005Z,70.80
2019-05-03T05:57:25.480Z,70.90
2019-05-03T05:59:04.440Z,70.90
2019-05-03T06:00:45.505Z,71.30
2019-05-03T06:02:22.205Z,71.30
2019-05-03T06:03:58.580Z,71.90
2019-05-03T06:05:35.648Z,72.40
2019-05-03T06:07:24.720Z,72.70
2019-05-03T06:09:08.184Z,73.10
2019-05-03T06:10:47.633Z,73.60
2019-05-03T06:12:37.768Z,74.10
2019-05-03T06:14:15.852Z,73.50
2019-05-03T06:15:56.872Z,73.90
2019-05-03T06:17:46.904Z,74.60
2019-05-03T06:19:44.876Z,75.10
2019-05-03T06:21:35.190Z,75.90
2019-05-03T06:23:14.442Z,76.30
2019-05-03T06:24:54.333Z,76.70
2019-05-03T06:26:48.402Z,76.90
2019-05-03T06:28:29.640Z,77.40
2019-05-03T06:30:26.338Z,77.50
2019-05-03T06:32:10.483Z,77.80
2019-05-03T06:33:46.866Z,77.90
2019-05-03T06:35:24.387Z,78.20
2019-05-03T06:37:17.867Z,78.40
2019-05-03T06:38:54.737Z,78.50
2019-05-03T06:40:31.194Z,78.30
2019-05-03T06:42:09.846Z,78.40
2019-05-03T06:43:48.737Z,77.70
2019-05-03T06:45:25.086Z,76.40
2019-05-03T06:47:08.778Z,75.60
2019-05-03T06:48:39.878Z,75.20
2019-05-03T06:50:19.599Z,72.20
2019-05-03T06:51:55.324Z,71.60
2019-05-03T06:53:31.803Z,70.30
2019-05-03T06:55:10.499Z,70.20
2019-05-03T06:56:46.554Z,67.80
2019-05-03T06:58:31.370Z,67.60
2019-05-03T07:00:08.587Z,67.00
2019-05-03T07:02:02.872Z,66.00
2019-05-03T07:03:41.271Z,65.60
2019-05-03T07:05:17.407Z,65.00
2019-05-03T07:06:58.411Z,64.20
2019-05-03T07:08:45.472Z,64.30
2019-05-03T07:10:25.592Z,63.40
2019-05-03T07:12:01.953Z,62.60
2019-05-03T07:13:38.329Z,62.90
2019-05-03T07:15:14.980Z,63.40
2019-05-03T07:16:51.393Z,63.90
2019-05-03T07:18:27.695Z,64.00
2019-05-03T07:20:05.105Z,62.10
2019-05-03T07:21:41.478Z,62.10
2019-05-03T07:23:17.782Z,60.60
2019-05-03T07:24:54.676Z,59.80
2019-05-03T07:26:31.364Z,59.20
2019-05-03T07:28:08.036Z,57.00
2019-05-03T07:29:44.712Z,56.00
2019-05-03T07:31:21.044Z,55.00
2019-05-03T07:33:02.168Z,56.50
2019-05-03T07:34:38.775Z,55.90
2019-05-03T07:36:15.694Z,56.70
2019-05-03T07:37:52.519Z,57.10
2019-05-03T07:39:28.889Z,56.90
2019-05-03T07:41:05.482Z,57.50
2019-05-03T07:42:41.845Z,58.30
2019-05-03T07:44:18.322Z,58.70
2019-05-03T07:45:55.336Z,58.70
2019-05-03T07:47:31.861Z,57.50
2019-05-03T07:49:08.432Z,57.20
2019-05-03T07:50:45.087Z,56.70
2019-05-03T07:52:21.872Z,56.80
2019-05-03T07:53:58.151Z,57.00
2019-05-03T07:55:51.663Z,56.60
2019-05-03T07:57:32.455Z,57.30
2019-05-03T07:59:08.732Z,56.90
2019-05-03T08:00:46.105Z,58.10
2019-05-03T08:02:25.129Z,57.20
2019-05-03T08:04:00.770Z,58.00
2019-05-03T08:05:37.065Z,58.50
2019-05-03T08:07:20.677Z,59.10
2019-05-03T08:08:51.850Z,59.10
2019-05-03T08:10:28.437Z,59.60
2019-05-03T08:12:05.266Z,60.50
2019-05-03T08:13:41.715Z,61.60
2019-05-03T08:15:18.229Z,64.70
2019-05-03T08:16:54.901Z,65.10
2019-05-03T08:18:31.221Z,66.40
2019-05-03T08:20:08.763Z,67.20
2019-05-03T08:21:45.428Z,68.20
2019-05-03T08:23:27.349Z,69.80
2019-05-03T08:25:01.086Z,71.20
2019-05-03T08:26:37.601Z,72.60
2019-05-03T08:28:14.740Z,73.60
2019-05-03T08:29:51.715Z,75.00
2019-05-03T08:31:36.670Z,75.00
2019-05-03T08:33:31.201Z,76.10
2019-05-03T08:35:12.326Z,77.20
2019-05-03T08:36:59.301Z,78.20
2019-05-03T08:38:35.712Z,78.80
2019-05-03T08:40:12.554Z,79.10
2019-05-03T08:41:56.274Z,79.40
2019-05-03T08:43:32.650Z,79.70
2019-05-03T08:45:09.360Z,80.40
2019-05-03T08:46:47.139Z,80.90
2019-05-03T08:48:24.977Z,81.50
2019-05-03T08:50:01.527Z,82.20
2019-05-03T08:51:38.443Z,82.50
2019-05-03T08:53:15.747Z,83.10
2019-05-03T08:54:52.228Z,83.90
2019-05-03T08:56:28.545Z,83.10
2019-05-03T08:58:05.329Z,83.40
2019-05-03T08:59:41.729Z,83.50
2019-05-03T09:01:19.160Z,83.40
2019-05-03T09:02:55.804Z,83.10
2019-05-03T09:04:37.537Z,83.80
2019-05-03T09:06:10.244Z,83.90
2019-05-03T09:07:46.739Z,83.90
2019-05-03T09:09:27.920Z,84.10
2019-05-03T09:11:08.375Z,83.80
2019-05-03T09:13:05.547Z,84.20
2019-05-03T09:14:45.517Z,83.90
2019-05-03T09:16:19.106Z,84.20
2019-05-03T09:17:55.516Z,84.20
2019-05-03T09:19:32.017Z,83.90
2019-05-03T09:21:14.783Z,84.00
2019-05-03T09:22:51.597Z,84.70
2019-05-03T09:24:27.974Z,85.50
2019-05-03T09:26:04.687Z,85.10
2019-05-03T09:27:41.361Z,86.00
2019-05-03T09:29:17.864Z,85.80
2019-05-03T09:30:55.267Z,86.30
2019-05-03T09:32:31.751Z,86.00
2019-05-03T09:34:09.264Z,85.50
2019-05-03T09:35:45.921Z,84.80
2019-05-03T09:37:22.279Z,84.70
2019-05-03T09:38:58.961Z,84.70
2019-05-03T09:40:36.107Z,83.40
2019-05-03T09:42:12.477Z,83.50
2019-05-03T09:43:48.844Z,84.00
2019-05-03T09:45:25.296Z,83.00
2019-05-03T09:47:01.738Z,84.20
2019-05-03T09:48:38.018Z,83.80
2019-05-03T09:50:15.720Z,83.80
2019-05-03T09:51:54.832Z,84.20
2019-05-03T09:53:35.147Z,84.10
2019-05-03T09:55:31.940Z,84.10
2019-05-03T09:57:08.306Z,84.70
2019-05-03T09:58:46.123Z,85.20
2019-05-03T10:00:24.556Z,85.30
2019-05-03T10:02:04.452Z,85.70
2019-05-03T10:03:40.717Z,85.60
2019-05-03T10:05:17.376Z,85.30
2019-05-03T10:06:54.778Z,85.20
2019-05-03T10:08:31.304Z,85.00
2019-05-03T10:10:07.815Z,84.80
2019-05-03T10:11:45.912Z,84.80
2019-05-03T10:13:23.791Z,84.70
2019-05-03T10:15:00.634Z,84.30
2019-05-03T10:16:41.757Z,83.90
2019-05-03T10:18:18.190Z,84.80
2019-05-03T10:19:54.841Z,84.50
2019-05-03T10:21:35.385Z,85.30
2019-05-03T10:23:14.791Z,84.70
2019-05-03T10:24:51.431Z,84.40
2019-05-03T10:26:27.870Z,84.20
2019-05-03T10:28:05.807Z,83.80
2019-05-03T10:29:42.214Z,83.70
2019-05-03T10:31:18.883Z,84.10
2019-05-03T10:33:05.818Z,83.90
2019-05-03T10:34:43.151Z,83.40
2019-05-03T10:36:20.126Z,83.90
2019-05-03T10:37:56.678Z,83.90
2019-05-03T10:39:33.052Z,83.70
2019-05-03T10:41:09.936Z,83.80
2019-05-03T10:42:46.929Z,83.70
2019-05-03T10:44:24.562Z,83.90
2019-05-03T10:46:01.314Z,83.70
2019-05-03T10:47:37.882Z,84.00
2019-05-03T10:49:15.336Z,84.10
2019-05-03T10:50:52.653Z,84.50
2019-05-03T10:52:31.882Z,85.20
2019-05-03T10:54:08.275Z,85.70
2019-05-03T10:55:46.261Z,85.60
2019-05-03T10:57:24.885Z,85.60
2019-05-03T10:59:02.761Z,85.90
2019-05-03T11:00:46.262Z,86.30
2019-05-03T11:02:37.274Z,86.50
2019-05-03T11:04:14.764Z,86.50
2019-05-03T11:05:54.830Z,86.70
2019-05-03T11:07:31.205Z,86.90
2019-05-03T11:09:08.329Z,87.10
2019-05-03T11:10:44.659Z,87.10
2019-05-03T11:12:21.094Z,87.40
2019-05-03T11:13:57.499Z,87.40
2019-05-03T11:15:35.073Z,87.70
2019-05-03T11:17:11.419Z,87.10
2019-05-03T11:18:50.926Z,86.80
2019-05-03T11:20:36.223Z,86.60
2019-05-03T11:22:14.555Z,86.70
2019-05-03T11:23:51.794Z,87.00
2019-05-03T11:25:30.289Z,87.00
2019-05-03T11:27:08.465Z,86.70
2019-05-03T11:28:44.947Z,86.60
2019-05-03T11:30:21.458Z,86.90
2019-05-03T11:31:57.740Z,87.20
2019-05-03T11:33:38.743Z,87.60
2019-05-03T11:35:20.951Z,88.60
2019-05-03T11:36:58.178Z,88.30
2019-05-03T11:38:36.172Z,88.90
2019-05-03T11:40:12.782Z,89.00
2019-05-03T11:41:51.772Z,89.90
2019-05-03T11:43:28.042Z,90.30
2019-05-03T11:45:06.859Z,90.40
2019-05-03T11:46:44.504Z,90.50
2019-05-03T11:48:21.574Z,90.80
2019-05-03T11:49:57.858Z,90.70
2019-05-03T11:51:35.359Z,90.70
2019-05-03T11:53:11.778Z,90.80
2019-05-03T11:54:48.141Z,90.80
2019-05-03T11:56:25.293Z,90.80
2019-05-03T11:58:05.514Z,90.80
2019-05-03T11:59:41.471Z,91.10
2019-05-03T12:01:20.290Z,91.30
2019-05-03T12:02:59.006Z,91.40
2019-05-03T12:04:35.484Z,91.30
2019-05-03T12:06:11.971Z,91.30
2019-05-03T12:07:48.379Z,91.40
2019-05-03T12:09:25.118Z,91.50
2019-05-03T12:11:01.859Z,91.40
2019-05-03T12:12:40.050Z,91.70
2019-05-03T12:14:16.408Z,91.70
2019-05-03T12:15:55.126Z,91.60
2019-05-03T12:17:36.074Z,91.10
2019-05-03T12:19:17.177Z,91.30
2019-05-03T12:20:52.514Z,91.60
2019-05-03T12:22:30.021Z,91.50
2019-05-03T12:24:07.348Z,91.70
2019-05-03T12:25:45.904Z,91.70
2019-05-03T12:27:24.413Z,91.60
2019-05-03T12:29:01.003Z,91.40
2019-05-03T12:30:37.618Z,91.10
2019-05-03T12:32:14.483Z,91.00
2019-05-03T12:33:51.244Z,90.70
2019-05-03T12:35:27.801Z,90.60
2019-05-03T12:37:05.218Z,90.60
2019-05-03T12:38:42.641Z,90.70
2019-05-03T12:40:20.325Z,90.70
2019-05-03T12:41:57.870Z,90.50
2019-05-03T12:43:38.317Z,90.40
2019-05-03T12:45:17.323Z,90.20
2019-05-03T12:46:53.770Z,90.10
2019-05-03T12:48:30.124Z,90.10
2019-05-03T12:50:09.774Z,90.00
2019-05-03T12:51:45.978Z,89.80
2019-05-03T12:53:25.282Z,89.60
2019-05-03T12:55:01.778Z,89.60
2019-05-03T12:56:38.151Z,89.60
2019-05-03T12:58:15.075Z,89.70
2019-05-03T12:59:55.523Z,89.60
2019-05-03T13:01:41.821Z,89.70
2019-05-03T13:03:18.218Z,90.00
2019-05-03T13:04:55.380Z,89.70
2019-05-03T13:06:34.615Z,89.60
2019-05-03T13:08:40.797Z,89.30
2019-05-03T13:10:22.808Z,89.40
2019-05-03T13:11:59.178Z,88.60
2019-05-03T13:13:36.036Z,87.70
2019-05-03T13:15:14.450Z,86.90
2019-05-03T13:16:50.988Z,86.50
2019-05-03T13:18:27.429Z,86.60
2019-05-03T13:20:05.443Z,86.60
2019-05-03T13:21:41.787Z,86.30
2019-05-03T13:23:18.160Z,86.60
2019-05-03T13:24:54.593Z,85.40
2019-05-03T13:26:31.036Z,85.10
2019-05-03T13:28:07.409Z,84.50
2019-05-03T13:29:45.331Z,84.30
2019-05-03T13:31:22.034Z,83.60
2019-05-03T13:32:58.887Z,83.40
2019-05-03T13:34:35.531Z,82.70
2019-05-03T13:36:12.190Z,82.70
2019-05-03T13:37:48.643Z,81.80
2019-05-03T13:39:26.518Z,80.90
2019-05-03T13:41:03.245Z,80.00
2019-05-03T13:42:53.417Z,79.80
2019-05-03T13:44:17.711Z,78.00
2019-05-03T13:45:55.652Z,75.90
2019-05-03T13:47:32.279Z,75.90
2019-05-03T13:49:10.621Z,75.70
2019-05-03T13:50:47.086Z,75.40
2019-05-03T13:52:25.097Z,75.60
2019-05-03T13:54:01.821Z,75.20
2019-05-03T13:55:38.438Z,75.30
2019-05-03T13:57:15.431Z,75.30
2019-05-03T13:58:52.095Z,76.10
2019-05-03T14:00:28.609Z,76.30
2019-05-03T14:02:15.237Z,75.90
2019-05-03T14:03:45.093Z,76.50
2019-05-03T14:05:21.378Z,76.10
2019-05-03T14:06:58.290Z,75.60
2019-05-03T14:08:35.126Z,75.20
2019-05-03T14:10:12.106Z,74.90
2019-05-03T14:11:48.406Z,74.40
2019-05-03T14:13:24.814Z,74.40
2019-05-03T14:15:02.251Z,74.50
2019-05-03T14:16:38.693Z,74.70
2019-05-03T14:18:16.127Z,74.10
2019-05-03T14:19:55.416Z,74.00
2019-05-03T14:21:35.207Z,74.20
2019-05-03T14:23:11.608Z,74.20
2019-05-03T14:24:48.043Z,73.90
2019-05-03T14:26:25.495Z,74.00
2019-05-03T14:28:02.146Z,74.50
2019-05-03T14:29:38.609Z,74.10
2019-05-03T14:31:15.024Z,74.60
2019-05-03T14:32:51.356Z,74.80
2019-05-03T14:34:28.739Z,75.40
2019-05-03T14:36:05.347Z,74.60
2019-05-03T14:37:41.997Z,74.80
2019-05-03T14:39:18.436Z,74.90
2019-05-03T14:40:55.220Z,75.80
2019-05-03T14:42:31.836Z,76.00
2019-05-03T14:44:10.275Z,76.20
2019-05-03T14:45:46.727Z,75.90
2019-05-03T14:47:25.200Z,76.20
2019-05-03T14:49:01.828Z,76.60
2019-05-03T14:50:38.315Z,77.10
2019-05-03T14:52:14.827Z,77.30
2019-05-03T14:53:51.560Z,77.80
2019-05-03T14:55:35.426Z,77.90
2019-05-03T14:57:14.572Z,78.50
2019-05-03T14:58:51.839Z,78.60
2019-05-03T15:00:34.575Z,79.20
2019-05-03T15:02:19.160Z,79.60
2019-05-03T15:03:55.380Z,79.70
2019-05-03T15:05:31.894Z,80.10
2019-05-03T15:07:08.173Z,80.00
2019-05-03T15:08:44.749Z,79.90
2019-05-03T15:10:21.252Z,80.10
2019-05-03T15:11:57.691Z,79.60
2019-05-03T15:13:34.965Z,79.60
2019-05-03T15:15:14.495Z,79.70
2019-05-03T15:16:50.532Z,79.80
2019-05-03T15:18:26.973Z,79.60
2019-05-03T15:20:04.781Z,79.20
2019-05-03T15:21:41.113Z,77.50
2019-05-03T15:23:18.476Z,77.50
2019-05-03T15:24:54.983Z,76.90
2019-05-03T15:26:31.498Z,76.10
2019-05-03T15:28:08.022Z,76.20
2019-05-03T15:29:44.885Z,76.40
2019-05-03T15:31:21.378Z,76.50
2019-05-03T15:33:00.900Z,76.70
2019-05-03T15:34:36.144Z,76.10
2019-05-03T15:36:12.787Z,75.60
2019-05-03T15:37:49.265Z,75.80
2019-05-03T15:39:25.699Z,75.70
2019-05-03T15:41:02.022Z,75.00
2019-05-03T15:42:40.083Z,75.00
2019-05-03T15:44:18.082Z,75.20
2019-05-03T15:45:59.268Z,75.60
2019-05-03T15:47:37.117Z,75.10
2019-05-03T15:49:15.115Z,74.60
2019-05-03T15:50:52.066Z,74.60
2019-05-03T15:52:28.540Z,74.50
2019-05-03T15:54:05.163Z,74.20
2019-05-03T15:55:41.572Z,74.10
2019-05-03T15:57:18.050Z,74.30
2019-05-03T15:58:55.142Z,74.70
2019-05-03T16:00:31.778Z,74.60
2019-05-03T16:02:08.217Z,74.70
2019-05-03T16:03:44.931Z,74.90
2019-05-03T16:05:21.643Z,75.00
2019-05-03T16:06:58.442Z,75.50
2019-05-03T16:08:34.951Z,75.00
2019-05-03T16:10:11.562Z,74.50
2019-05-03T16:11:47.837Z,74.90
2019-05-03T16:13:25.287Z,74.60
2019-05-03T16:15:02.083Z,74.70
2019-05-03T16:16:38.486Z,74.70
2019-05-03T16:18:14.958Z,74.70
2019-05-03T16:19:55.586Z,74.60
2019-05-03T16:21:31.430Z,74.90
2019-05-03T16:23:07.866Z,75.10
2019-05-03T16:24:44.816Z,75.50
2019-05-03T16:26:22.520Z,75.80
2019-05-03T16:28:00.426Z,76.10
2019-05-03T16:29:36.879Z,76.50
2019-05-03T16:31:15.000Z,76.50
2019-05-03T16:32:51.431Z,77.10
2019-05-03T16:34:27.772Z,77.00
2019-05-03T16:36:05.507Z,76.90
2019-05-03T16:37:42.119Z,77.00
2019-05-03T16:39:18.461Z,77.30
2019-05-03T16:40:54.964Z,76.50
2019-05-03T16:42:31.284Z,75.80
2019-05-03T16:44:07.655Z,75.40
2019-05-03T16:45:45.093Z,76.20
2019-05-03T16:47:22.263Z,76.30
2019-05-03T16:48:59.034Z,75.90
2019-05-03T16:50:35.557Z,76.00
2019-05-03T16:52:11.956Z,76.30
2019-05-03T16:53:48.403Z,76.50
2019-05-03T16:55:25.692Z,76.90
2019-05-03T16:57:02.293Z,77.10
2019-05-03T16:58:38.719Z,77.80
2019-05-03T17:00:17.939Z,78.30
2019-05-03T17:01:55.192Z,78.50
2019-05-03T17:03:39.312Z,78.50
2019-05-03T17:05:16.176Z,79.00
2019-05-03T17:06:55.298Z,78.80
2019-05-03T17:08:36.321Z,78.80
2019-05-03T17:10:30.582Z,79.50
2019-05-03T17:12:15.209Z,79.60
2019-05-03T17:13:51.559Z,79.70
2019-05-03T17:15:29.416Z,79.70
2019-05-03T17:17:07.236Z,79.40
2019-05-03T17:18:44.656Z,78.90
2019-05-03T17:20:21.332Z,79.50
2019-05-03T17:21:57.868Z,79.60
2019-05-03T17:23:35.344Z,79.80
2019-05-03T17:25:12.051Z,80.00
2019-05-03T17:26:49.527Z,80.80
2019-05-03T17:28:25.974Z,80.20
2019-05-03T17:30:04.510Z,80.30
2019-05-03T17:31:40.384Z,80.40
2019-05-03T17:33:28.831Z,79.60
2019-05-03T17:35:09.875Z,79.50
2019-05-03T17:36:47.948Z,79.90
2019-05-03T17:38:24.421Z,79.90
2019-05-03T17:40:14.896Z,80.00
2019-05-03T17:41:55.419Z,80.40
2019-05-03T17:43:34.619Z,80.30
2019-05-03T17:45:15.896Z,80.70
2019-05-03T17:46:52.275Z,81.00
2019-05-03T17:48:28.615Z,81.20
2019-05-03T17:50:08.024Z,81.30
2019-05-03T17:51:48.817Z,81.40
2019-05-03T17:53:26.080Z,81.50
2019-05-03T17:55:06.843Z,81.80
2019-05-03T17:56:44.862Z,81.70
2019-05-03T17:58:37.686Z,81.80
2019-05-03T18:00:26.327Z,82.10
2019-05-03T18:02:16.485Z,82.30
2019-05-03T18:04:06.655Z,82.70
2019-05-03T18:05:44.830Z,83.00
2019-05-03T18:07:30.436Z,83.20
2019-05-03T18:09:22.797Z,83.60
2019-05-03T18:11:14.771Z,83.80
2019-05-03T18:12:51.623Z,84.10
2019-05-03T18:14:28.030Z,84.20
2019-05-03T18:16:04.833Z,84.30
2019-05-03T18:17:41.256Z,84.70
2019-05-03T18:19:17.630Z,85.00
2019-05-03T18:20:55.503Z,85.30
2019-05-03T18:22:32.018Z,85.60
2019-05-03T18:24:08.377Z,85.70
2019-05-03T18:25:44.877Z,85.70
2019-05-03T18:27:21.462Z,85.80
2019-05-03T18:28:58.236Z,86.40
2019-05-03T18:30:35.000Z,86.50
2019-05-03T18:32:11.463Z,86.70
2019-05-03T18:34:57.747Z,86.90
2019-05-03T18:36:34.710Z,87.20
2019-05-03T18:38:11.415Z,87.40
2019-05-03T18:39:47.793Z,87.50
2019-05-03T18:41:25.522Z,87.70
2019-05-03T18:43:06.830Z,87.80
2019-05-03T18:44:55.205Z,88.10
2019-05-03T18:46:34.364Z,88.50
2019-05-03T18:48:10.880Z,88.60
2019-05-03T18:49:47.311Z,88.70
2019-05-03T18:51:25.203Z,89.20
2019-05-03T18:53:01.682Z,89.50
2019-05-03T18:54:38.040Z,89.50
2019-05-03T18:56:14.820Z,89.70
2019-05-03T18:57:51.396Z,89.80
2019-05-03T18:59:27.726Z,89.90
2019-05-03T19:01:06.073Z,90.00
2019-05-03T19:02:44.406Z,90.00
2019-05-03T19:04:32.347Z,90.10
2019-05-03T19:06:05.369Z,90.20
2019-05-03T19:07:45.291Z,90.30
2019-05-03T19:09:39.561Z,90.30
2019-05-03T19:11:22.096Z,90.50
2019-05-03T19:13:00.730Z,90.40
2019-05-03T19:14:37.140Z,90.50
2019-05-03T19:16:18.238Z,90.60
2019-05-03T19:17:56.315Z,90.50
2019-05-03T19:19:35.232Z,90.70
2019-05-03T19:21:11.856Z,90.70
2019-05-03T19:22:48.284Z,90.70
2019-05-03T19:24:24.718Z,90.80
2019-05-03T19:26:01.357Z,90.80
2019-05-03T19:27:37.760Z,90.90
2019-05-03T19:29:14.893Z,91.00
2019-05-03T19:30:51.605Z,91.10
2019-05-03T19:32:28.529Z,91.10
2019-05-03T19:34:06.062Z,91.10
2019-05-03T19:35:44.319Z,91.10
2019-05-03T19:37:20.712Z,91.20
2019-05-03T19:38:58.043Z,91.10
2019-05-03T19:40:35.095Z,91.20
2019-05-03T19:42:11.862Z,91.30
2019-05-03T19:43:48.295Z,91.30
2019-05-03T19:45:24.965Z,91.40
2019-05-03T19:47:01.047Z,91.50
2019-05-03T19:48:37.529Z,91.40
2019-05-03T19:50:15.778Z,91.50
2019-05-03T19:51:52.156Z,91.60
2019-05-03T19:53:28.459Z,91.50
2019-05-03T19:55:07.140Z,91.60
2019-05-03T19:56:44.588Z,91.60
2019-05-03T19:58:22.163Z,91.70
2019-05-03T19:59:58.508Z,91.70
2019-05-03T20:01:36.524Z,91.80
2019-05-03T20:03:30.802Z,91.80
2019-05-03T20:05:14.951Z,91.90
2019-05-03T20:07:02.333Z,92.00
2019-05-03T20:08:40.311Z,92.30
2019-05-03T20:10:18.237Z,91.90
2019-05-03T20:11:55.228Z,92.00
2019-05-03T20:13:34.772Z,92.10
2019-05-03T20:15:11.088Z,92.10
2019-05-03T20:16:47.454Z,91.90
2019-05-03T20:18:23.995Z,92.20
2019-05-03T20:19:59.998Z,92.30
2019-05-03T20:21:36.544Z,92.30
2019-05-03T20:23:14.643Z,92.50
2019-05-03T20:24:52.295Z,92.50
2019-05-03T20:26:28.703Z,92.60
2019-05-03T20:28:05.505Z,92.80
2019-05-03T20:29:43.798Z,92.80
2019-05-03T20:31:20.282Z,92.80
2019-05-03T20:32:57.118Z,92.80
2019-05-03T20:34:33.632Z,92.80
2019-05-03T20:36:10.181Z,92.70
2019-05-03T20:37:47.538Z,92.70
2019-05-03T20:39:25.429Z,92.90
2019-05-03T20:41:02.218Z,92.80
2019-05-03T20:42:55.662Z,92.70
2019-05-03T20:44:44.702Z,92.70
2019-05-03T20:46:22.539Z,92.90
2019-05-03T20:48:00.567Z,93.00
2019-05-03T20:49:37.191Z,93.00
2019-05-03T20:51:16.571Z,93.30
2019-05-03T20:52:54.834Z,93.20
2019-05-03T20:54:34.994Z,93.30
2019-05-03T20:56:11.480Z,93.40
2019-05-03T20:57:48.415Z,93.50
2019-05-03T20:59:25.398Z,93.60
2019-05-03T21:01:01.873Z,93.60
2019-05-03T21:02:50.177Z,93.80
2019-05-03T21:04:16.881Z,93.90
2019-05-03T21:05:55.161Z,93.90
2019-05-03T21:07:31.558Z,94.00
2019-05-03T21:09:08.737Z,94.00